Main page
METAR-TAF:

METAR-TAF

Airports :

Araxos, Greece

Araxos Airport

latitude: 38-09N, longitude: 021-25E, elevation: 11 m

Current weather observation

The report was made 21 minutes ago, at 22:50 UTC
Wind 4 kt from the South/Southwest
Temperature 13°C
Humidity 82%
Pressure 1017 hPa
Visibility 10 km or more
Scattered clouds at a height of 7000 ft

METAR: LGRX 192250Z 20004KT 9999 SCT070 13/10 Q1017

Time: 01:11 (23:11 UTC)

Forecast

The report was made 3 hours and 11 minutes ago, at 20:00 UTC
Forecast valid from 19 at 21 UTC to 20 at 06 UTC
Wind 12 kt from the South/Southwest
Visibility 10 km or more
Few clouds at a height of 1200 ft
Broken clouds at a height of 2500 ft

TAF: LGRX 192000Z 1921/2006 20012KT 9999 FEW012 BKN025

Weather observations and forecasts of more than 4000 airports (METAR and TAF reports).

The available stations are represented by yellow and red dots on the map.

Hover mouse over dot to see the name of the station.

Then click to see weather observations and forecasts.

To change the map : click on the green buttons with a black cross to zoom in, on the green button with a dash to zoom out, or on the green arrows for adjacent maps.


METAR-TAF: